createdAt,value
2023-01-13T00:01:16.717Z,100317.91
2023-01-13T00:03:43.576Z,100325.06
2023-01-13T00:06:13.740Z,100324.22
2023-01-13T00:08:40.363Z,100326.16
2023-01-13T00:11:06.702Z,100319.91
2023-01-13T00:13:35.208Z,100325.25
2023-01-13T00:16:07.402Z,100325.25
2023-01-13T00:18:34.126Z,100332.41
2023-01-13T00:21:03.590Z,100326.22
2023-01-13T00:23:31.609Z,100320.03
2023-01-13T00:26:00.179Z,100337.94
2023-01-13T00:28:26.537Z,100338.91
2023-01-13T00:30:52.944Z,100333.47
2023-01-13T00:33:19.517Z,100345.97
2023-01-13T00:35:56.308Z,100350.56
2023-01-13T00:38:22.684Z,100358.59
2023-01-13T00:40:58.296Z,100349.78
2023-01-13T00:43:25.669Z,100330.28
2023-01-13T00:45:52.546Z,100324.94
2023-01-13T00:48:20.573Z,100320.50
2023-01-13T00:50:54.147Z,100328.59
2023-01-13T00:53:20.560Z,100324.19
2023-01-13T00:55:46.892Z,100318.94
2023-01-13T00:58:13.256Z,100314.66
2023-01-13T01:00:39.631Z,100311.88
2023-01-13T01:03:12.113Z,100299.56
2023-01-13T01:05:39.599Z,100309.31
2023-01-13T01:08:05.985Z,100303.06
2023-01-13T01:10:32.591Z,100298.81
2023-01-13T01:12:58.991Z,100298.81
2023-01-13T01:15:25.511Z,100287.25
2023-01-13T01:17:52.135Z,100287.44
2023-01-13T01:20:18.566Z,100291.94
2023-01-13T01:22:44.961Z,100302.69
2023-01-13T01:25:11.349Z,100295.69
2023-01-13T01:27:37.751Z,100301.97
2023-01-13T01:30:04.560Z,100299.31
2023-01-13T01:32:33.266Z,100317.16
2023-01-13T01:34:59.623Z,100308.34
2023-01-13T01:37:25.983Z,100311.13
2023-01-13T01:39:52.342Z,100316.56
2023-01-13T01:42:37.591Z,100334.41
2023-01-13T01:45:25.200Z,100349.84
2023-01-13T01:47:57.384Z,100349.84
2023-01-13T01:50:24.317Z,100342.75
2023-01-13T01:52:57.390Z,100348.09
2023-01-13T01:55:29.075Z,100336.56
2023-01-13T01:58:21.307Z,100350.03
2023-01-13T02:00:48.387Z,100352.94
2023-01-13T02:03:17.765Z,100352.09
2023-01-13T02:05:44.205Z,100347.69
2023-01-13T02:08:13.031Z,100344.19
2023-01-13T02:10:42.688Z,100342.53
2023-01-13T02:13:13.060Z,100339.88
2023-01-13T02:16:04.214Z,100337.38
2023-01-13T02:18:33.459Z,100338.34
2023-01-13T02:21:27.704Z,100333.16
2023-01-13T02:24:28.163Z,100334.19
2023-01-13T02:27:25.500Z,100333.41
2023-01-13T02:30:29.358Z,100334.53
2023-01-13T02:33:07.849Z,100342.66
2023-01-13T02:35:52.051Z,100342.66
2023-01-13T02:38:28.745Z,100337.38
2023-01-13T02:41:27.318Z,100338.25
2023-01-13T02:44:07.726Z,100328.69
2023-01-13T02:46:46.677Z,100328.69
2023-01-13T02:49:21.414Z,100333.19
2023-01-13T02:51:50.569Z,100333.28
2023-01-13T02:54:24.345Z,100335.94
2023-01-13T02:56:51.122Z,100335.16
2023-01-13T02:59:19.555Z,100332.50
2023-01-13T03:01:47.705Z,100328.09
2023-01-13T03:04:35.319Z,100332.66
2023-01-13T03:07:43.047Z,100340.94
2023-01-13T03:10:31.214Z,100333.97
2023-01-13T03:13:24.499Z,100341.13
2023-01-13T03:16:02.305Z,100329.59
2023-01-13T03:18:45.494Z,100328.78
2023-01-13T03:21:34.329Z,100322.50
2023-01-13T03:24:07.142Z,100324.41
2023-01-13T03:26:46.081Z,100315.63
2023-01-13T03:29:19.307Z,100319.25
2023-01-13T03:31:58.561Z,100322.84
2023-01-13T03:34:33.076Z,100323.78
2023-01-13T03:37:03.832Z,100321.13
2023-01-13T03:39:34.469Z,100330.84
2023-01-13T03:42:07.800Z,100319.41
2023-01-13T03:44:58.059Z,100336.28
2023-01-13T03:47:33.230Z,100323.91
2023-01-13T03:50:09.173Z,100329.31
2023-01-13T03:52:45.808Z,100336.63
2023-01-13T03:55:16.083Z,100332.16
2023-01-13T03:57:59.661Z,100328.56
2023-01-13T04:00:32.240Z,100316.13
2023-01-13T04:03:11.677Z,100325.09
2023-01-13T04:05:47.096Z,100324.25
2023-01-13T04:08:23.860Z,100335.75
2023-01-13T04:11:03.583Z,100339.38
2023-01-13T04:13:35.684Z,100329.66
2023-01-13T04:16:02.381Z,100341.09
2023-01-13T04:18:30.718Z,100337.47
2023-01-13T04:21:01.011Z,100344.72
2023-01-13T04:23:28.615Z,100343.66
2023-01-13T04:25:55.548Z,100333.09
2023-01-13T04:28:22.817Z,100327.88
2023-01-13T04:30:49.327Z,100306.41
2023-01-13T04:33:17.738Z,100323.38
2023-01-13T04:35:45.439Z,100301.34
2023-01-13T04:38:17.217Z,100318.81
2023-01-13T04:40:44.229Z,100318.91
2023-01-13T04:43:10.642Z,100305.63
2023-01-13T04:45:37.224Z,100310.97
2023-01-13T04:48:03.869Z,100302.97
2023-01-13T04:50:30.335Z,100293.25
2023-01-13T04:52:56.813Z,100298.56
2023-01-13T04:55:24.294Z,100298.56
2023-01-13T04:57:50.681Z,100303.91
2023-01-13T05:00:19.340Z,100305.78
2023-01-13T05:02:45.861Z,100310.38
2023-01-13T05:05:12.412Z,100302.28
2023-01-13T05:07:38.853Z,100296.94
2023-01-13T05:10:05.758Z,100305.09
2023-01-13T05:12:51.368Z,100313.03
2023-01-13T05:15:36.295Z,100310.53
2023-01-13T05:18:02.944Z,100319.41
2023-01-13T05:20:29.349Z,100329.22
2023-01-13T05:23:14.476Z,100330.06
2023-01-13T05:25:44.384Z,100325.75
2023-01-13T05:28:11.262Z,100334.72
2023-01-13T05:30:42.508Z,100337.41
2023-01-13T05:33:10.483Z,100331.09
2023-01-13T05:35:45.584Z,100329.38
2023-01-13T05:38:13.255Z,100328.59
2023-01-13T05:40:59.637Z,100330.34
2023-01-13T05:43:27.050Z,100324.38
2023-01-13T05:46:02.327Z,100326.09
2023-01-13T05:48:37.442Z,100327.06
2023-01-13T05:51:05.985Z,100344.00
2023-01-13T05:53:33.168Z,100338.69
2023-01-13T05:55:59.712Z,100330.84
2023-01-13T05:58:27.720Z,100337.81
2023-01-13T06:01:00.242Z,100342.31
2023-01-13T06:03:27.130Z,100349.50
2023-01-13T06:05:58.665Z,100349.59
2023-01-13T06:08:26.000Z,100343.31
2023-01-13T06:10:53.748Z,100351.50
2023-01-13T06:13:20.370Z,100348.72
2023-01-13T06:15:46.823Z,100352.34
2023-01-13T06:18:13.356Z,100354.16
2023-01-13T06:20:39.800Z,100344.66
2023-01-13T06:23:10.000Z,100355.00
2023-01-13T06:25:46.521Z,100364.91
2023-01-13T06:28:12.817Z,100367.56
2023-01-13T06:30:45.299Z,100372.50
2023-01-13T06:33:14.775Z,100372.34
2023-01-13T06:35:45.573Z,100377.53
2023-01-13T06:38:16.137Z,100377.53
2023-01-13T06:40:43.244Z,100371.34
2023-01-13T06:43:16.946Z,100366.00
2023-01-13T06:45:46.086Z,100375.72
2023-01-13T06:48:12.871Z,100380.31
2023-01-13T06:50:39.388Z,100378.59
2023-01-13T06:53:05.928Z,100386.50
2023-01-13T06:55:32.387Z,100391.03
2023-01-13T06:57:58.967Z,100383.91
2023-01-13T07:00:26.793Z,100393.63
2023-01-13T07:02:54.094Z,100396.47
2023-01-13T07:05:21.667Z,100387.50
2023-01-13T07:07:48.129Z,100392.84
2023-01-13T07:10:22.430Z,100405.38
2023-01-13T07:13:08.387Z,100404.59
2023-01-13T07:15:35.355Z,100404.75
2023-01-13T07:18:02.413Z,100410.03
2023-01-13T07:20:30.496Z,100396.75
2023-01-13T07:22:57.761Z,100409.13
2023-01-13T07:25:24.327Z,100406.47
2023-01-13T07:27:50.706Z,100419.78
2023-01-13T07:30:17.476Z,100421.69
2023-01-13T07:32:43.822Z,100425.13
2023-01-13T07:35:10.317Z,100422.56
2023-01-13T07:37:39.389Z,100427.03
2023-01-13T07:40:06.745Z,100422.47
2023-01-13T07:42:51.936Z,100419.03
2023-01-13T07:45:18.345Z,100425.28
2023-01-13T07:47:44.720Z,100426.09
2023-01-13T07:50:11.438Z,100445.59
2023-01-13T07:52:37.829Z,100434.09
2023-01-13T07:55:04.436Z,100444.75
2023-01-13T07:57:30.831Z,100457.13
2023-01-13T07:59:57.183Z,100456.28
2023-01-13T08:02:23.802Z,100449.13
2023-01-13T08:04:50.227Z,100438.41
2023-01-13T08:07:16.598Z,100428.59
2023-01-13T08:09:43.001Z,100431.94
2023-01-13T08:12:27.838Z,100437.06
2023-01-13T08:14:54.579Z,100452.91
2023-01-13T08:17:21.406Z,100446.56
2023-01-13T08:19:47.916Z,100456.22
2023-01-13T08:22:14.373Z,100451.66
2023-01-13T08:24:41.050Z,100464.81
2023-01-13T08:27:07.628Z,100474.41
2023-01-13T08:29:34.060Z,100468.13
2023-01-13T08:32:00.487Z,100469.84
2023-01-13T08:34:27.029Z,100471.59
2023-01-13T08:36:53.385Z,100479.31
2023-01-13T08:39:20.078Z,100468.56
2023-01-13T08:41:55.637Z,100474.53
2023-01-13T08:44:24.662Z,100477.03
2023-01-13T08:46:52.798Z,100482.28
2023-01-13T08:49:19.484Z,100487.38
2023-01-13T08:51:46.034Z,100465.41
2023-01-13T08:54:12.767Z,100477.47
2023-01-13T08:56:41.126Z,100479.06
2023-01-13T08:59:11.560Z,100478.09
2023-01-13T09:01:39.334Z,100487.81
2023-01-13T09:04:07.160Z,100477.13
2023-01-13T09:06:33.625Z,100475.25
2023-01-13T09:09:00.710Z,100479.59
2023-01-13T09:11:50.913Z,100486.53
2023-01-13T09:14:22.810Z,100488.44
2023-01-13T09:16:49.593Z,100495.25
2023-01-13T09:19:16.378Z,100494.16
2023-01-13T09:21:42.834Z,100489.66
2023-01-13T09:24:09.393Z,100487.84
2023-01-13T09:26:37.948Z,100486.66
2023-01-13T09:29:05.321Z,100498.97
2023-01-13T09:31:35.024Z,100498.72
2023-01-13T09:34:25.365Z,100496.81
2023-01-13T09:36:52.210Z,100485.22
2023-01-13T09:39:18.756Z,100495.72
2023-01-13T09:42:08.531Z,100492.94
2023-01-13T09:45:05.036Z,100499.16
2023-01-13T09:48:02.473Z,100487.34
2023-01-13T09:50:34.179Z,100471.69
2023-01-13T09:53:01.212Z,100511.22
2023-01-13T09:55:33.973Z,100515.38
2023-01-13T09:58:13.183Z,100509.00
2023-01-13T10:00:45.212Z,100512.44
2023-01-13T10:03:29.707Z,100510.66
2023-01-13T10:06:04.532Z,100517.75
2023-01-13T10:08:40.737Z,100516.69
2023-01-13T10:11:37.645Z,100508.56
2023-01-13T10:14:15.527Z,100494.34
2023-01-13T10:16:48.147Z,100503.75
2023-01-13T10:19:33.727Z,100494.63
2023-01-13T10:22:20.744Z,100511.44
2023-01-13T10:25:18.340Z,100517.19
2023-01-13T10:27:49.274Z,100511.50
2023-01-13T10:30:31.146Z,100511.16
2023-01-13T10:33:06.468Z,100528.56
2023-01-13T10:35:57.911Z,100520.38
2023-01-13T10:38:40.172Z,100507.16
2023-01-13T10:41:23.212Z,100540.03
2023-01-13T10:43:55.569Z,100529.34
2023-01-13T10:46:21.981Z,100531.16
2023-01-13T10:49:00.137Z,100532.97
2023-01-13T10:51:43.593Z,100552.72
2023-01-13T10:54:13.063Z,100549.09
2023-01-13T10:56:45.003Z,100547.38
2023-01-13T10:59:29.983Z,100544.78
2023-01-13T11:01:59.385Z,100546.53
2023-01-13T11:04:36.691Z,100539.25
2023-01-13T11:07:06.214Z,100546.13
2023-01-13T11:09:32.861Z,100554.78
2023-01-13T11:12:00.269Z,100553.41
2023-01-13T11:14:41.393Z,100541.56
2023-01-13T11:17:42.109Z,100554.06
2023-01-13T11:20:11.492Z,100556.56
2023-01-13T11:22:45.455Z,100553.50
2023-01-13T11:25:23.293Z,100554.91
2023-01-13T11:28:00.655Z,100558.16
2023-01-13T11:30:55.297Z,100571.25
2023-01-13T11:33:35.009Z,100565.72
2023-01-13T11:36:20.953Z,100563.16
2023-01-13T11:38:54.579Z,100581.09
2023-01-13T11:41:23.890Z,100582.91
2023-01-13T11:44:23.396Z,100605.34
2023-01-13T11:46:53.512Z,100606.31
2023-01-13T11:49:30.811Z,100603.63
2023-01-13T11:52:07.930Z,100611.66
2023-01-13T11:54:55.270Z,100604.59
2023-01-13T11:57:52.328Z,100605.53
2023-01-13T12:01:02.719Z,100617.38
2023-01-13T12:03:57.482Z,100604.78
2023-01-13T12:06:37.797Z,100613.56
2023-01-13T12:09:23.310Z,100624.19
2023-01-13T12:12:22.638Z,100623.50
2023-01-13T12:15:04.130Z,100626.34
2023-01-13T12:17:51.931Z,100635.34
2023-01-13T12:20:27.310Z,100633.59
2023-01-13T12:22:58.267Z,100639.81
2023-01-13T12:25:41.939Z,100638.19
2023-01-13T12:28:21.072Z,100645.25
2023-01-13T12:30:56.474Z,100625.84
2023-01-13T12:33:38.176Z,100639.09
2023-01-13T12:36:29.759Z,100626.81
2023-01-13T12:39:06.575Z,100634.03
2023-01-13T12:42:02.442Z,100642.91
2023-01-13T12:44:28.835Z,100641.28
2023-01-13T12:46:57.242Z,100642.91
2023-01-13T12:49:25.140Z,100638.44
2023-01-13T12:51:51.606Z,100641.78
2023-01-13T12:54:50.128Z,100641.09
2023-01-13T12:57:16.467Z,100652.41
2023-01-13T12:59:48.885Z,100647.75
2023-01-13T13:02:15.861Z,100649.41
2023-01-13T13:04:51.908Z,100658.97
2023-01-13T13:07:39.456Z,100666.13
2023-01-13T13:10:29.995Z,100662.31
2023-01-13T13:13:18.434Z,100668.47
2023-01-13T13:15:48.972Z,100676.56
2023-01-13T13:18:18.304Z,100700.41
2023-01-13T13:21:04.455Z,100682.75
2023-01-13T13:23:37.122Z,100689.94
2023-01-13T13:26:16.643Z,100690.22
2023-01-13T13:29:24.078Z,100703.59
2023-01-13T13:31:56.761Z,100706.44
2023-01-13T13:34:45.052Z,100695.72
2023-01-13T13:37:23.532Z,100718.84
2023-01-13T13:40:08.509Z,100717.13
2023-01-13T13:43:01.931Z,100715.41
2023-01-13T13:45:47.595Z,100726.28
2023-01-13T13:48:30.947Z,100727.38
2023-01-13T13:51:04.037Z,100737.16
2023-01-13T13:53:42.278Z,100730.94
2023-01-13T13:56:26.196Z,100751.38
2023-01-13T13:58:53.329Z,100755.88
2023-01-13T14:01:26.827Z,100761.28
2023-01-13T14:04:25.896Z,100769.59
2023-01-13T14:07:00.456Z,100782.63
2023-01-13T14:09:44.378Z,100782.53
2023-01-13T14:12:26.289Z,100796.88
2023-01-13T14:14:55.825Z,100794.25
2023-01-13T14:17:28.927Z,100795.16
2023-01-13T14:20:07.766Z,100808.41
2023-01-13T14:22:34.612Z,100812.28
2023-01-13T14:25:01.902Z,100813.06
2023-01-13T14:27:29.968Z,100808.59
2023-01-13T14:29:59.558Z,100815.84
2023-01-13T14:32:37.228Z,100823.09
2023-01-13T14:35:07.683Z,100829.28
2023-01-13T14:37:37.668Z,100819.38
2023-01-13T14:40:05.112Z,100829.97
2023-01-13T14:42:35.174Z,100835.34
2023-01-13T14:45:02.538Z,100829.97
2023-01-13T14:47:33.600Z,100828.16
2023-01-13T14:50:07.498Z,100832.59
2023-01-13T14:52:47.768Z,100840.69
2023-01-13T14:55:36.329Z,100835.34
2023-01-13T14:58:25.188Z,100846.03
2023-01-13T15:01:12.600Z,100845.00
2023-01-13T15:03:42.671Z,100852.94
2023-01-13T15:06:29.485Z,100855.72
2023-01-13T15:08:55.937Z,100859.34
2023-01-13T15:11:28.590Z,100857.44
2023-01-13T15:14:03.663Z,100869.16
2023-01-13T15:16:33.794Z,100876.47
2023-01-13T15:19:01.100Z,100877.44
2023-01-13T15:21:27.508Z,100886.41
2023-01-13T15:23:54.025Z,100885.78
2023-01-13T15:26:28.835Z,100903.47
2023-01-13T15:28:57.489Z,100915.91
2023-01-13T15:31:24.850Z,100928.50
2023-01-13T15:33:51.439Z,100924.88
2023-01-13T15:36:27.305Z,100935.56
2023-01-13T15:38:53.860Z,100923.31
2023-01-13T15:41:39.258Z,100927.72
2023-01-13T15:44:24.092Z,100933.22
2023-01-13T15:46:51.875Z,100930.69
2023-01-13T15:49:44.851Z,100931.81
2023-01-13T15:52:22.058Z,100936.34
2023-01-13T15:54:49.319Z,100942.91
2023-01-13T15:57:22.459Z,100940.31
2023-01-13T15:59:49.764Z,100937.00
2023-01-13T16:02:18.222Z,100951.16
2023-01-13T16:04:45.344Z,100953.06
2023-01-13T16:07:15.846Z,100946.03
2023-01-13T16:09:42.830Z,100955.03
2023-01-13T16:12:09.305Z,100959.56
2023-01-13T16:14:35.714Z,100961.44
2023-01-13T16:17:03.363Z,100970.25
2023-01-13T16:19:29.828Z,100979.28
2023-01-13T16:21:58.788Z,100979.38
2023-01-13T16:24:25.150Z,100983.88
2023-01-13T16:26:51.584Z,100992.75
2023-01-13T16:29:18.155Z,100987.47
2023-01-13T16:31:44.551Z,100980.53
2023-01-13T16:34:11.027Z,100991.22
2023-01-13T16:36:37.559Z,100994.84
2023-01-13T16:39:05.360Z,101009.13
2023-01-13T16:41:33.472Z,101002.94
2023-01-13T16:44:05.817Z,101012.75
2023-01-13T16:46:32.256Z,101018.25
2023-01-13T16:49:03.168Z,101011.03
2023-01-13T16:51:29.618Z,101008.50
2023-01-13T16:53:56.438Z,101023.59
2023-01-13T16:56:28.450Z,101013.78
2023-01-13T16:58:57.110Z,101029.81
2023-01-13T17:01:44.669Z,101027.38
2023-01-13T17:04:16.759Z,101029.91
2023-01-13T17:07:02.582Z,101029.09
2023-01-13T17:09:30.266Z,101029.19
2023-01-13T17:11:57.340Z,101023.84
2023-01-13T17:14:24.882Z,101038.06
2023-01-13T17:16:53.581Z,101047.03
2023-01-13T17:19:22.854Z,101050.56
2023-01-13T17:21:51.078Z,101044.50
2023-01-13T17:24:18.354Z,101054.25
2023-01-13T17:26:48.919Z,101059.59
2023-01-13T17:29:22.024Z,101063.22
2023-01-13T17:31:49.531Z,101067.75
2023-01-13T17:34:15.960Z,101077.66
2023-01-13T17:36:45.186Z,101081.31
2023-01-13T17:39:26.432Z,101081.22
2023-01-13T17:41:55.933Z,101076.81
2023-01-13T17:44:23.549Z,101069.81
2023-01-13T17:46:50.675Z,101075.88
2023-01-13T17:49:19.487Z,101080.34
2023-01-13T17:51:50.969Z,101069.66
2023-01-13T17:54:18.146Z,101083.03
2023-01-13T17:56:44.722Z,101083.88
2023-01-13T17:59:13.062Z,101096.38
2023-01-13T18:01:40.185Z,101097.34
2023-01-13T18:04:07.726Z,101099.06
2023-01-13T18:06:34.200Z,101106.22
2023-01-13T18:09:08.144Z,101115.19
2023-01-13T18:11:36.104Z,101102.72
2023-01-13T18:14:03.497Z,101099.28
2023-01-13T18:16:40.677Z,101102.72
2023-01-13T18:19:29.971Z,101108.06
2023-01-13T18:22:14.972Z,101105.50
2023-01-13T18:25:06.325Z,101102.81
2023-01-13T18:27:36.354Z,101108.22
2023-01-13T18:30:04.672Z,101108.31
2023-01-13T18:32:33.656Z,101098.47
2023-01-13T18:35:06.439Z,101106.34
2023-01-13T18:37:35.780Z,101112.69
2023-01-13T18:40:02.624Z,101122.66
2023-01-13T18:42:50.509Z,101115.31
2023-01-13T18:45:18.808Z,101119.06
2023-01-13T18:47:45.556Z,101133.22
2023-01-13T18:50:13.620Z,101128.81
2023-01-13T18:52:40.779Z,101121.00
2023-01-13T18:55:07.421Z,101144.00
2023-01-13T18:57:37.409Z,101142.19
2023-01-13T19:00:04.178Z,101147.53
2023-01-13T19:02:31.533Z,101149.38
2023-01-13T19:04:57.910Z,101146.78
2023-01-13T19:07:28.208Z,101156.63
2023-01-13T19:09:55.934Z,101163.75
2023-01-13T19:12:30.872Z,101162.97
2023-01-13T19:14:58.443Z,101170.16
2023-01-13T19:17:26.831Z,101172.06
2023-01-13T19:19:55.786Z,101182.78
2023-01-13T19:22:32.548Z,101182.78
2023-01-13T19:25:00.083Z,101192.69
2023-01-13T19:27:30.279Z,101194.56
2023-01-13T19:30:00.742Z,101200.03
2023-01-13T19:32:30.564Z,101209.84
2023-01-13T19:34:59.367Z,101208.13
2023-01-13T19:37:30.037Z,101209.19
2023-01-13T19:39:58.121Z,101199.44
2023-01-13T19:42:43.171Z,101211.94
2023-01-13T19:45:30.811Z,101217.28
2023-01-13T19:48:00.749Z,101216.47
2023-01-13T19:50:27.742Z,101216.47
2023-01-13T19:52:54.249Z,101221.03
2023-01-13T19:55:20.670Z,101225.41
2023-01-13T19:57:47.458Z,101214.72
2023-01-13T20:00:18.238Z,101223.69
2023-01-13T20:02:49.069Z,101222.06
2023-01-13T20:05:20.919Z,101230.88
2023-01-13T20:07:48.699Z,101237.22
2023-01-13T20:10:16.188Z,101239.88
2023-01-13T20:12:42.635Z,101242.56
2023-01-13T20:15:09.790Z,101246.31
2023-01-13T20:17:36.311Z,101248.03
2023-01-13T20:20:04.046Z,101257.84
2023-01-13T20:22:30.442Z,101271.28
2023-01-13T20:24:56.858Z,101265.19
2023-01-13T20:27:24.000Z,101276.66
2023-01-13T20:29:51.523Z,101274.13
2023-01-13T20:32:18.084Z,101277.59
2023-01-13T20:34:44.536Z,101270.53
2023-01-13T20:37:10.958Z,101285.66
2023-01-13T20:39:37.400Z,101287.47
2023-01-13T20:42:22.505Z,101292.03
2023-01-13T20:44:49.533Z,101302.69
2023-01-13T20:47:16.338Z,101289.34
2023-01-13T20:49:42.728Z,101302.69
2023-01-13T20:52:09.627Z,101299.16
2023-01-13T20:54:40.648Z,101311.63
2023-01-13T20:57:09.817Z,101322.31
2023-01-13T20:59:37.673Z,101312.56
2023-01-13T21:02:05.865Z,101315.31
2023-01-13T21:04:32.273Z,101306.41
2023-01-13T21:06:58.668Z,101317.09
2023-01-13T21:09:26.481Z,101313.50
2023-01-13T21:12:12.228Z,101304.69
2023-01-13T21:14:57.018Z,101303.00
2023-01-13T21:17:42.399Z,101302.22
2023-01-13T21:20:11.333Z,101314.75
2023-01-13T21:22:38.883Z,101320.09
2023-01-13T21:25:06.119Z,101314.75
2023-01-13T21:27:32.834Z,101326.28
2023-01-13T21:29:59.192Z,101332.56
2023-01-13T21:32:25.661Z,101344.19
2023-01-13T21:34:52.048Z,101327.41
2023-01-13T21:37:18.594Z,101333.63
2023-01-13T21:39:45.388Z,101322.00
2023-01-13T21:42:33.942Z,101326.56
2023-01-13T21:45:18.860Z,101340.94
2023-01-13T21:47:48.419Z,101342.75
2023-01-13T21:50:23.462Z,101337.47
2023-01-13T21:52:52.534Z,101349.00
2023-01-13T21:55:20.838Z,101347.31
2023-01-13T21:57:48.422Z,101351.72
2023-01-13T22:00:16.625Z,101353.59
2023-01-13T22:02:44.003Z,101355.34
2023-01-13T22:05:12.190Z,101355.34
2023-01-13T22:07:39.716Z,101359.00
2023-01-13T22:10:09.030Z,101358.19
2023-01-13T22:12:36.105Z,101358.19
2023-01-13T22:15:02.983Z,101365.34
2023-01-13T22:17:31.487Z,101363.56
2023-01-13T22:19:58.875Z,101361.84
2023-01-13T22:22:26.215Z,101370.78
2023-01-13T22:24:53.556Z,101368.13
2023-01-13T22:27:25.170Z,101371.78
2023-01-13T22:29:52.767Z,101382.38
2023-01-13T22:32:20.637Z,101393.16
2023-01-13T22:34:47.915Z,101398.50
2023-01-13T22:37:14.751Z,101389.81
2023-01-13T22:39:41.187Z,101403.94
2023-01-13T22:42:07.781Z,101392.41
2023-01-13T22:44:34.288Z,101384.47
2023-01-13T22:47:00.981Z,101396.03
2023-01-13T22:49:27.447Z,101396.03
2023-01-13T22:51:54.113Z,101408.53
2023-01-13T22:54:20.624Z,101405.88
2023-01-13T22:56:47.059Z,101397.94
2023-01-13T22:59:14.489Z,101400.72
2023-01-13T23:01:42.127Z,101397.00
2023-01-13T23:04:11.737Z,101407.66
2023-01-13T23:06:38.396Z,101408.66
2023-01-13T23:09:04.814Z,101405.13
2023-01-13T23:11:31.287Z,101416.72
2023-01-13T23:14:02.694Z,101422.13
2023-01-13T23:16:30.759Z,101430.13
2023-01-13T23:18:57.203Z,101420.44
2023-01-13T23:21:26.556Z,101424.81
2023-01-13T23:23:54.284Z,101428.38
2023-01-13T23:26:21.594Z,101425.78
2023-01-13T23:28:48.465Z,101424.91
2023-01-13T23:31:18.496Z,101419.59
2023-01-13T23:33:44.922Z,101427.63
2023-01-13T23:36:17.333Z,101414.34
2023-01-13T23:38:44.507Z,101415.22
2023-01-13T23:41:13.922Z,101415.22
2023-01-13T23:43:40.784Z,101410.81
2023-01-13T23:46:13.422Z,101398.34
2023-01-13T23:48:40.255Z,101389.53
2023-01-13T23:51:10.533Z,101386.84
2023-01-13T23:53:43.024Z,101390.38
2023-01-13T23:56:16.431Z,101396.66
2023-01-13T23:58:43.508Z,101392.22
